Time;durP1;ratioP1;P1;durP2;ratioP2;P2;SDS_P1;SDS_P2;PMS_P1;PMS_P2;Temp;Humidity;BMP_temperature;BMP_pressure;BME280_temperature;BME280_humidity;BME280_pressure;Samples;Min_cycle;Max_cycle;Signal;HPM_P1;HPM_P2
2022/08/01 00:00:26;;;;;;;;;;;;;;;25.26;35.62;100611.91;5015424;28;20387;-82
2022/08/01 00:02:51;;;;;;;;;;;;;;;25.26;35.81;100615.47;5016420;28;20008;-79
2022/08/01 00:05:17;;;;;;;;;;;;;;;25.27;35.73;100619.03;5016581;28;19922;-78
2022/08/01 00:07:42;;;;;;;;;;;;;;;25.25;35.48;100613.84;5016177;28;19922;-79
2022/08/01 00:10:08;;;;;;;;;;;;;;;25.26;35.61;100611.91;5016454;28;19923;-79
2022/08/01 00:12:33;;;;;;;;;;;;;;;25.25;35.59;100616.56;5016306;28;20012;-81
2022/08/01 00:14:58;;;;;;;;;;;;;;;25.26;35.19;100615.47;5015920;28;19967;-81
2022/08/01 00:17:24;;;;;;;;;;;;;;;25.24;35.38;100612.16;5015952;28;19918;-79
2022/08/01 00:19:49;;;;;;;;;;;;;;;25.26;35.14;100612.72;5015785;28;19925;-79
2022/08/01 00:22:14;;;;;;;;;;;;;;;25.24;34.91;100614.91;5016107;28;19924;-79
2022/08/01 00:24:39;;;;;;;;;;;;;;;25.24;34.74;100614.91;5016288;28;20466;-80
2022/08/01 00:27:05;;;;;;;;;;;;;;;25.24;34.85;100611.34;5016097;28;19929;-79
2022/08/01 00:29:30;;;;;;;;;;;;;;;25.24;34.79;100616.81;5016087;28;19928;-82
2022/08/01 00:31:55;;;;;;;;;;;;;;;25.25;34.64;100622.03;5015888;28;19924;-79
2022/08/01 00:34:21;;;;;;;;;;;;;;;25.23;34.47;100621.47;5016167;28;19960;-80
2022/08/01 00:36:46;;;;;;;;;;;;;;;25.25;34.71;100618.44;5015835;28;19940;-79
2022/08/01 00:39:11;;;;;;;;;;;;;;;25.24;34.61;100620.38;5006763;28;19996;-80
2022/08/01 00:41:37;;;;;;;;;;;;;;;25.24;34.41;100625.84;4995944;28;20261;-83
2022/08/01 00:44:03;;;;;;;;;;;;;;;25.24;34.64;100609.41;4995761;28;19922;-79
2022/08/01 00:46:28;;;;;;;;;;;;;;;25.25;34.72;100616.56;4994771;28;19992;-80
2022/08/01 00:48:54;;;;;;;;;;;;;;;25.24;34.69;100619.56;4995769;28;20356;-79
2022/08/01 00:51:20;;;;;;;;;;;;;;;25.22;34.58;100611.63;4995166;28;19940;-80
2022/08/01 00:53:45;;;;;;;;;;;;;;;25.25;34.51;100616.56;4994513;28;19917;-81
2022/08/01 00:56:10;;;;;;;;;;;;;;;25.22;34.58;100610.81;4995673;28;19918;-81
2022/08/01 00:58:36;;;;;;;;;;;;;;;25.23;34.57;100606.97;4996109;28;19925;-78
2022/08/01 01:01:01;;;;;;;;;;;;;;;25.22;34.72;100611.63;4994707;28;19918;-79
2022/08/01 01:03:27;;;;;;;;;;;;;;;25.22;34.49;100611.63;4995457;28;20288;-79
2022/08/01 01:05:55;;;;;;;;;;;;;;;25.22;34.65;100606.16;4995773;28;19926;-80
2022/08/01 01:08:24;;;;;;;;;;;;;;;25.22;34.75;100608.88;4996024;28;20009;-80
2022/08/01 01:10:56;;;;;;;;;;;;;;;25.24;34.64;100608.63;4995292;28;19917;-81
2022/08/01 01:13:27;;;;;;;;;;;;;;;25.23;34.46;100605.06;4995570;28;19917;-81
2022/08/01 01:15:57;;;;;;;;;;;;;;;25.22;34.72;100605.34;4995579;28;19928;-78
2022/08/01 01:18:22;;;;;;;;;;;;;;;25.21;34.50;100609.97;4994365;28;19921;-80
2022/08/01 01:21:08;;;;;;;;;;;;;;;25.21;34.62;100609.16;4995590;28;20360;-79
2022/08/01 01:23:52;;;;;;;;;;;;;;;25.23;34.44;100607.81;4973787;28;19918;-79
2022/08/01 01:26:26;;;;;;;;;;;;;;;25.25;34.72;100610.22;4973783;28;19918;-81
2022/08/01 01:29:17;;;;;;;;;;;;;;;25.22;34.52;100611.63;4957175;28;20446;-83
2022/08/01 01:31:54;;;;;;;;;;;;;;;25.24;34.32;100606.69;4916245;29;20435;-79
2022/08/01 01:34:19;;;;;;;;;;;;;;;25.23;34.55;100605.06;4916525;29;20001;-79
2022/08/01 01:36:45;;;;;;;;;;;;;;;25.24;34.20;100603.94;4900653;29;20482;-80
2022/08/01 01:39:10;;;;;;;;;;;;;;;25.23;34.35;100596.88;4915975;29;20479;-80
2022/08/01 01:41:36;;;;;;;;;;;;;;;25.22;34.46;100594.41;4900344;29;20397;-82
2022/08/01 01:44:01;;;;;;;;;;;;;;;25.23;34.45;100593.28;4900365;29;20393;-79
2022/08/01 01:46:27;;;;;;;;;;;;;;;25.22;34.46;100595.22;4900454;29;19919;-79
2022/08/01 01:48:53;;;;;;;;;;;;;;;25.22;34.12;100578.00;4900860;29;20417;-80
2022/08/01 01:51:19;;;;;;;;;;;;;;;25.21;34.23;100581.81;4916241;29;19923;-79
2022/08/01 01:53:44;;;;;;;;;;;;;;;25.21;34.29;100588.09;4900537;29;20512;-81
2022/08/01 01:56:09;;;;;;;;;;;;;;;25.21;34.26;100593.56;4900506;29;20366;-82
2022/08/01 01:58:34;;;;;;;;;;;;;;;25.20;34.25;100591.13;4915760;29;19919;-79
2022/08/01 02:01:00;;;;;;;;;;;;;;;25.19;33.99;100582.09;4913618;29;19919;-79
2022/08/01 02:03:26;;;;;;;;;;;;;;;25.21;34.27;100584.56;4939064;29;19919;-79
2022/08/01 02:05:52;;;;;;;;;;;;;;;25.20;34.21;100581.00;4923149;29;19923;-82
2022/08/01 02:08:17;;;;;;;;;;;;;;;25.19;34.20;100592.22;4964001;28;19925;-79
2022/08/01 02:11:17;;;;;;;;;;;;;;;25.17;33.98;100591.69;4997943;28;19922;-79
2022/08/01 02:13:28;;;;;;;;;;;;;;;25.18;34.03;100594.16;4998490;28;19918;-79
2022/08/01 02:15:53;;;;;;;;;;;;;;;25.18;33.88;100588.69;4998936;28;20279;-79
2022/08/01 02:18:18;;;;;;;;;;;;;;;25.20;33.86;100591.13;4998966;28;19924;-79
2022/08/01 02:20:44;;;;;;;;;;;;;;;25.19;33.89;100590.31;4997479;28;19918;-79
2022/08/01 02:23:12;;;;;;;;;;;;;;;25.20;34.10;100585.63;4997473;28;19992;-80
2022/08/01 02:25:50;;;;;;;;;;;;;;;25.19;33.89;100589.50;4998538;28;19918;-82
2022/08/01 02:28:17;;;;;;;;;;;;;;;25.19;34.06;100590.31;4997061;28;19922;-82
2022/08/01 02:30:44;;;;;;;;;;;;;;;25.18;34.04;100591.41;4997399;28;19926;-79
2022/08/01 02:33:09;;;;;;;;;;;;;;;25.19;33.84;100594.97;4997189;28;19918;-78
2022/08/01 02:35:36;;;;;;;;;;;;;;;25.20;34.06;100591.13;4998321;28;19925;-79
2022/08/01 02:38:02;;;;;;;;;;;;;;;25.20;34.14;100583.75;4997220;28;19917;-79
2022/08/01 02:40:28;;;;;;;;;;;;;;;25.19;34.22;100587.56;5016114;28;19949;-80
2022/08/01 02:42:54;;;;;;;;;;;;;;;25.19;34.19;100587.56;5016628;28;19928;-82
2022/08/01 02:45:20;;;;;;;;;;;;;;;25.18;34.19;100585.09;5016959;28;19921;-81
2022/08/01 02:47:45;;;;;;;;;;;;;;;25.18;34.07;100582.38;5017577;28;20367;-79
2022/08/01 02:50:11;;;;;;;;;;;;;;;25.16;34.05;100581.84;5017608;28;19917;-79
2022/08/01 02:52:36;;;;;;;;;;;;;;;25.16;34.32;100581.84;5016565;28;19918;-79
2022/08/01 02:55:01;;;;;;;;;;;;;;;25.17;34.42;100587.03;5017702;28;20005;-79
2022/08/01 02:57:26;;;;;;;;;;;;;;;25.19;34.27;100584.84;5016070;28;19924;-82
2022/08/01 02:59:52;;;;;;;;;;;;;;;25.18;34.40;100587.84;5017284;28;19925;-82
2022/08/01 03:02:17;;;;;;;;;;;;;;;25.16;34.39;100584.56;5016569;28;19924;-77
2022/08/01 03:04:42;;;;;;;;;;;;;;;25.16;34.31;100588.13;5017308;28;19955;-79
2022/08/01 03:07:08;;;;;;;;;;;;;;;25.18;34.54;100577.75;5016082;28;19917;-79
2022/08/01 03:09:35;;;;;;;;;;;;;;;25.17;34.53;100578.84;5017800;28;19918;-80
2022/08/01 03:12:01;;;;;;;;;;;;;;;25.16;34.63;100568.16;5016625;28;19917;-82
2022/08/01 03:14:26;;;;;;;;;;;;;;;25.17;34.57;100570.63;5016453;28;20408;-79
2022/08/01 03:16:51;;;;;;;;;;;;;;;25.18;34.60;100565.97;5017630;28;19964;-79
2022/08/01 03:19:17;;;;;;;;;;;;;;;25.15;34.31;100567.38;5017648;28;19945;-79
2022/08/01 03:21:42;;;;;;;;;;;;;;;25.15;34.57;100572.84;5017795;28;19921;-80
2022/08/01 03:24:08;;;;;;;;;;;;;;;25.18;34.64;100566.81;5015959;28;19917;-82
2022/08/01 03:26:34;;;;;;;;;;;;;;;25.15;34.59;100572.00;5015873;28;19921;-81
2022/08/01 03:29:00;;;;;;;;;;;;;;;25.12;34.81;100567.91;5016526;28;20419;-79
2022/08/01 03:31:25;;;;;;;;;;;;;;;25.17;34.57;100570.63;5016962;28;19956;-78
2022/08/01 03:33:50;;;;;;;;;;;;;;;25.15;34.85;100572.00;5016208;28;19945;-79
2022/08/01 03:36:15;;;;;;;;;;;;;;;25.14;34.83;100571.19;5015810;28;19917;-79
2022/08/01 03:38:41;;;;;;;;;;;;;;;25.15;35.04;100566.53;5012942;28;19973;-81
2022/08/01 03:41:09;;;;;;;;;;;;;;;25.15;34.82;100567.38;4996128;28;19982;-82
2022/08/01 03:43:38;;;;;;;;;;;;;;;25.16;35.04;100571.72;4996892;28;20403;-79
2022/08/01 03:46:07;;;;;;;;;;;;;;;25.17;35.03;100570.63;4996339;28;19928;-79
2022/08/01 03:48:34;;;;;;;;;;;;;;;25.13;35.12;100577.78;4996023;28;19945;-79
2022/08/01 03:51:00;;;;;;;;;;;;;;;25.16;35.02;100574.44;4997618;28;19918;-80
2022/08/01 03:53:25;;;;;;;;;;;;;;;25.18;35.17;100576.91;4997202;28;19964;-82
2022/08/01 03:55:51;;;;;;;;;;;;;;;25.18;35.40;100583.22;4997043;28;19918;-81
2022/08/01 03:58:16;;;;;;;;;;;;;;;25.17;35.36;100575.28;4995762;28;19980;-79
2022/08/01 04:00:41;;;;;;;;;;;;;;;25.19;35.42;100570.34;4995928;28;19918;-78
2022/08/01 04:03:08;;;;;;;;;;;;;;;25.20;35.37;100577.44;4996992;28;19918;-78
2022/08/01 04:05:35;;;;;;;;;;;;;;;25.19;35.15;100573.91;4996752;28;19996;-79
2022/08/01 04:08:02;;;;;;;;;;;;;;;25.20;35.41;100574.69;4996608;28;19918;-82
2022/08/01 04:10:28;;;;;;;;;;;;;;;25.21;35.37;100573.63;4996869;28;19999;-83
2022/08/01 04:12:53;;;;;;;;;;;;;;;25.19;35.29;100576.63;4996564;28;19917;-80
2022/08/01 04:15:20;;;;;;;;;;;;;;;25.22;35.50;100575.25;4995360;28;19965;-80
2022/08/01 04:17:45;;;;;;;;;;;;;;;25.20;35.33;100580.16;4996361;28;19917;-81
2022/08/01 04:20:11;;;;;;;;;;;;;;;25.17;35.78;100576.09;4996488;28;19924;-81
2022/08/01 04:22:36;;;;;;;;;;;;;;;25.21;35.64;100577.16;4997242;28;19957;-84
2022/08/01 04:25:02;;;;;;;;;;;;;;;25.21;35.69;100582.63;4997482;28;19941;-80
2022/08/01 04:27:32;;;;;;;;;;;;;;;25.09;36.03;100584.88;4996477;28;19921;-80
2022/08/01 04:29:58;;;;;;;;;;;;;;;25.18;35.99;100576.91;4996114;28;19938;-78
2022/08/01 04:32:24;;;;;;;;;;;;;;;25.15;35.91;100581.03;4996398;28;19969;-80
2022/08/01 04:34:49;;;;;;;;;;;;;;;25.21;36.15;100566.22;4995411;28;19917;-81
2022/08/01 04:37:16;;;;;;;;;;;;;;;25.23;35.96;100569.50;4995938;28;19918;-80
2022/08/01 04:39:41;;;;;;;;;;;;;;;25.25;36.09;100567.34;5005663;28;19960;-82
2022/08/01 04:42:06;;;;;;;;;;;;;;;25.25;36.21;100567.34;5015938;28;19964;-79
2022/08/01 04:44:32;;;;;;;;;;;;;;;25.27;36.20;100567.06;5015677;28;20027;-80
2022/08/01 04:46:58;;;;;;;;;;;;;;;25.27;36.67;100565.13;5014411;28;20377;-78
2022/08/01 04:49:24;;;;;;;;;;;;;;;25.26;36.92;100563.50;5015736;28;19953;-78
2022/08/01 04:51:57;;;;;;;;;;;;;;;25.30;36.56;100559.09;5015355;28;19972;-79
2022/08/01 04:54:22;;;;;;;;;;;;;;;25.29;37.02;100562.13;5015336;28;19917;-81
2022/08/01 04:56:47;;;;;;;;;;;;;;;25.26;36.83;100558.03;5015844;28;20355;-78
2022/08/01 05:01:57;;;;;;;;;;;;;;;25.30;36.92;100563.75;5015286;28;20007;-79
2022/08/01 05:04:22;;;;;;;;;;;;;;;25.21;37.24;100555.28;5016120;28;20232;-77
2022/08/01 05:06:47;;;;;;;;;;;;;;;25.19;37.90;100557.47;5015157;28;20367;-79
2022/08/01 05:09:13;;;;;;;;;;;;;;;25.30;37.34;100559.09;5015229;28;19923;-79
2022/08/01 05:11:38;;;;;;;;;;;;;;;25.33;37.59;100557.72;5014952;28;19921;-81
2022/08/01 05:14:03;;;;;;;;;;;;;;;25.25;37.90;100559.13;5015699;28;19960;-81
2022/08/01 05:16:28;;;;;;;;;;;;;;;25.30;37.84;100547.31;5015345;28;20421;-80
2022/08/01 05:18:54;;;;;;;;;;;;;;;25.34;37.76;100548.41;5014961;28;19924;-79
2022/08/01 05:21:19;;;;;;;;;;;;;;;25.34;37.37;100547.63;5014931;28;19917;-80
2022/08/01 05:23:44;;;;;;;;;;;;;;;25.35;37.52;100543.75;5014860;28;19963;-81
2022/08/01 05:26:13;;;;;;;;;;;;;;;25.36;37.72;100534.47;5014817;28;20312;-84
2022/08/01 05:28:38;;;;;;;;;;;;;;;25.33;37.45;100546.78;5014742;28;19921;-83
2022/08/01 05:31:04;;;;;;;;;;;;;;;25.36;37.82;100540.75;5015258;28;19927;-79
2022/08/01 05:33:29;;;;;;;;;;;;;;;25.39;37.69;100544.81;5014828;28;20352;-80
2022/08/01 05:35:54;;;;;;;;;;;;;;;25.38;37.76;100546.75;5014401;28;19917;-80
2022/08/01 05:38:19;;;;;;;;;;;;;;;25.34;37.80;100542.94;5014817;28;20363;-80
2022/08/01 05:40:45;;;;;;;;;;;;;;;25.32;38.20;100545.16;4998159;28;19973;-81
2022/08/01 05:43:10;;;;;;;;;;;;;;;25.35;38.09;100543.75;4995345;28;20375;-79
2022/08/01 05:45:36;;;;;;;;;;;;;;;25.37;38.06;100541.53;4996223;28;20376;-78
2022/08/01 05:48:01;;;;;;;;;;;;;;;25.30;38.67;100542.69;4997518;28;20380;-80
2022/08/01 05:50:26;;;;;;;;;;;;;;;25.35;38.33;100536.34;4997195;28;20317;-79
2022/08/01 05:52:52;;;;;;;;;;;;;;;25.34;38.29;100537.47;4997411;28;19961;-83
2022/08/01 05:55:17;;;;;;;;;;;;;;;25.31;38.67;100529.81;4996443;28;20372;-82
2022/08/01 05:57:42;;;;;;;;;;;;;;;25.32;38.65;100538.84;4997070;28;19929;-80
2022/08/01 06:00:08;;;;;;;;;;;;;;;25.35;38.65;100538.28;4997144;28;20399;-79
2022/08/01 06:02:33;;;;;;;;;;;;;;;25.34;38.44;100532.00;4996445;28;19922;-78
2022/08/01 06:04:58;;;;;;;;;;;;;;;25.34;38.67;100531.19;4997047;28;20380;-78
2022/08/01 06:07:24;;;;;;;;;;;;;;;25.36;38.63;100535.28;4997162;28;19917;-81
2022/08/01 06:09:49;;;;;;;;;;;;;;;25.32;38.72;100527.91;4997517;28;20402;-80
2022/08/01 06:12:14;;;;;;;;;;;;;;;25.31;38.74;100521.63;4997604;28;19964;-82
2022/08/01 06:14:39;;;;;;;;;;;;;;;25.34;38.67;100521.06;4997072;28;19984;-82
2022/08/01 06:17:05;;;;;;;;;;;;;;;25.38;38.69;100524.03;4997836;28;20351;-78
2022/08/01 06:19:30;;;;;;;;;;;;;;;25.38;38.62;100516.66;4999058;28;19952;-79
2022/08/01 06:21:55;;;;;;;;;;;;;;;25.41;38.54;100520.75;4997636;28;19922;-80
2022/08/01 06:24:22;;;;;;;;;;;;;;;25.36;38.87;100509.84;4997740;28;20453;-82
2022/08/01 06:26:48;;;;;;;;;;;;;;;25.35;38.87;100513.66;4997015;28;19929;-82
2022/08/01 06:29:13;;;;;;;;;;;;;;;25.31;38.58;100510.69;4997705;28;19987;-82
2022/08/01 06:31:38;;;;;;;;;;;;;;;25.35;38.46;100510.94;4998585;28;20360;-80
2022/08/01 06:34:04;;;;;;;;;;;;;;;25.34;38.94;100512.06;4998530;28;19922;-79
2022/08/01 06:36:29;;;;;;;;;;;;;;;25.40;38.55;100514.44;4997212;28;20352;-80
2022/08/01 06:38:54;;;;;;;;;;;;;;;25.17;38.56;100504.19;4999728;28;19973;-79
2022/08/01 06:41:19;;;;;;;;;;;;;;;25.31;38.52;100505.22;5017931;28;20356;-79
2022/08/01 06:43:45;;;;;;;;;;;;;;;25.43;38.29;100499.41;5018176;28;19917;-82
2022/08/01 06:46:10;;;;;;;;;;;;;;;25.37;38.22;100506.81;5018371;28;19922;-83
2022/08/01 06:48:39;;;;;;;;;;;;;;;25.37;38.31;100504.09;5019318;28;19921;-81
2022/08/01 06:51:13;;;;;;;;;;;;;;;25.38;38.31;100502.16;5022043;28;20418;-81
2022/08/01 06:53:38;;;;;;;;;;;;;;;25.40;38.04;100508.16;5022262;28;19918;-78
2022/08/01 06:56:04;;;;;;;;;;;;;;;25.45;38.11;100500.72;5023785;28;19917;-81
2022/08/01 06:58:29;;;;;;;;;;;;;;;25.40;38.20;100502.69;5022940;28;19918;-79
2022/08/01 07:00:54;;;;;;;;;;;;;;;25.41;38.08;100498.88;5022393;28;19917;-80
2022/08/01 07:03:19;;;;;;;;;;;;;;;25.37;38.23;100493.16;5023036;28;19925;-82
2022/08/01 07:05:45;;;;;;;;;;;;;;;25.42;38.05;100498.59;5021855;28;19917;-82
2022/08/01 07:08:10;;;;;;;;;;;;;;;25.40;38.29;100502.69;5022456;28;19988;-82
2022/08/01 07:10:36;;;;;;;;;;;;;;;25.41;37.95;100499.66;5021508;28;20324;-80
2022/08/01 07:13:01;;;;;;;;;;;;;;;25.42;38.06;100508.69;5020680;28;20372;-80
2022/08/01 07:15:26;;;;;;;;;;;;;;;25.41;37.88;100507.06;5018020;28;19940;-79
2022/08/01 07:17:52;;;;;;;;;;;;;;;25.35;38.20;100495.31;5018093;28;20012;-80
2022/08/01 07:20:17;;;;;;;;;;;;;;;25.30;38.08;100504.41;5018171;28;20292;-79
2022/08/01 07:22:42;;;;;;;;;;;;;;;25.34;37.97;100504.66;5017507;28;19961;-82
2022/08/01 07:25:08;;;;;;;;;;;;;;;25.30;38.17;100509.88;5017016;28;19917;-81
2022/08/01 07:27:33;;;;;;;;;;;;;;;25.17;38.25;100505.00;5016834;28;20359;-79
2022/08/01 07:29:58;;;;;;;;;;;;;;;25.15;38.55;100504.47;5017193;28;20412;-80
2022/08/01 07:32:24;;;;;;;;;;;;;;;25.17;38.55;100510.47;5018387;28;19925;-77
2022/08/01 07:34:49;;;;;;;;;;;;;;;25.29;38.26;100508.22;5017997;28;19918;-79
2022/08/01 07:37:14;;;;;;;;;;;;;;;25.27;37.72;100499.50;5017060;28;20244;-79
2022/08/01 07:39:40;;;;;;;;;;;;;;;25.36;37.95;100502.44;5016329;28;20008;-81
2022/08/01 07:42:05;;;;;;;;;;;;;;;25.44;37.41;100504.59;5016129;28;19918;-84
2022/08/01 07:44:30;;;;;;;;;;;;;;;25.46;37.52;100488.69;5017463;28;20016;-81
2022/08/01 07:46:55;;;;;;;;;;;;;;;25.45;37.57;100491.72;5017173;28;19944;-79
2022/08/01 07:49:21;;;;;;;;;;;;;;;25.43;37.65;100493.91;5017956;28;20276;-79
2022/08/01 07:51:47;;;;;;;;;;;;;;;25.41;37.46;100487.94;5017549;28;19917;-79
2022/08/01 07:54:12;;;;;;;;;;;;;;;25.33;37.46;100483.06;5017083;28;20394;-81
2022/08/01 07:56:37;;;;;;;;;;;;;;;25.41;37.72;100482.44;5017419;28;19917;-79
2022/08/01 07:59:02;;;;;;;;;;;;;;;25.44;37.55;100484.59;5016624;28;20326;-81
2022/08/01 08:01:28;;;;;;;;;;;;;;;25.39;37.50;100484.63;5017350;28;19917;-79
2022/08/01 08:03:53;;;;;;;;;;;;;;;25.39;37.64;100479.16;5017371;28;20028;-78
2022/08/01 08:06:18;;;;;;;;;;;;;;;25.46;37.60;100479.69;5016171;28;19918;-79
2022/08/01 08:08:44;;;;;;;;;;;;;;;25.38;37.47;100472.88;5016467;28;20059;-80
2022/08/01 08:11:09;;;;;;;;;;;;;;;25.40;37.36;100469.88;5016384;28;19937;-81
2022/08/01 08:13:34;;;;;;;;;;;;;;;25.38;37.64;100472.06;5016488;28;19965;-82
2022/08/01 08:16:00;;;;;;;;;;;;;;;25.39;37.38;100469.06;5016182;28;19917;-83
2022/08/01 08:18:25;;;;;;;;;;;;;;;25.39;36.99;100468.22;5016246;28;19917;-83
2022/08/01 08:20:50;;;;;;;;;;;;;;;25.41;36.64;100466.03;5016332;28;19971;-83
2022/08/01 08:26:00;;;;;;;;;;;;;;;25.25;37.29;100457.94;5016000;28;19988;-81
2022/08/01 08:28:25;;;;;;;;;;;;;;;25.26;36.62;100465.03;5015750;28;19929;-82
2022/08/01 08:30:50;;;;;;;;;;;;;;;25.29;36.98;100459.00;5015559;28;19922;-80
2022/08/01 08:33:15;;;;;;;;;;;;;;;25.20;37.18;100454.38;5016119;28;19963;-79
2022/08/01 08:35:41;;;;;;;;;;;;;;;25.27;36.94;100458.47;5015444;28;20265;-80
2022/08/01 08:38:06;;;;;;;;;;;;;;;25.36;36.62;100449.66;5015691;28;19943;-78
2022/08/01 08:40:32;;;;;;;;;;;;;;;25.36;36.37;100457.88;5001616;28;19924;-80
2022/08/01 08:42:57;;;;;;;;;;;;;;;25.44;36.18;100459.97;4994882;28;19933;-81
2022/08/01 08:45:23;;;;;;;;;;;;;;;25.41;36.24;100450.44;4996156;28;19921;-81
2022/08/01 08:47:48;;;;;;;;;;;;;;;25.46;36.00;100455.06;4995814;28;19922;-80
2022/08/01 08:50:14;;;;;;;;;;;;;;;25.35;36.14;100451.56;4994876;28;20316;-78
2022/08/01 08:52:39;;;;;;;;;;;;;;;25.35;35.94;100456.22;4995939;28;19921;-79
2022/08/01 08:55:05;;;;;;;;;;;;;;;25.39;35.98;100457.28;4994850;28;19985;-80
2022/08/01 08:57:30;;;;;;;;;;;;;;;25.44;35.59;100449.03;4996055;28;20303;-80
2022/08/01 08:59:56;;;;;;;;;;;;;;;25.43;35.88;100448.22;4996077;28;19918;-79
2022/08/01 09:02:22;;;;;;;;;;;;;;;25.34;35.83;100443.66;4995803;28;19918;-79
2022/08/01 09:04:48;;;;;;;;;;;;;;;25.34;35.56;100441.75;4995529;28;19981;-80
2022/08/01 09:07:14;;;;;;;;;;;;;;;25.33;35.54;100442.81;4994337;28;20004;-82
2022/08/01 09:09:39;;;;;;;;;;;;;;;25.38;35.32;100445.53;4995199;28;19937;-83
2022/08/01 09:12:04;;;;;;;;;;;;;;;25.39;35.33;100438.13;4995297;28;19918;-79
2022/08/01 09:14:31;;;;;;;;;;;;;;;25.32;35.14;100440.38;4996093;28;20291;-80
2022/08/01 09:17:03;;;;;;;;;;;;;;;25.32;34.92;100440.38;4995633;28;19972;-79
2022/08/01 09:19:35;;;;;;;;;;;;;;;25.37;34.62;100437.59;4995778;28;19918;-81
2022/08/01 09:22:03;;;;;;;;;;;;;;;25.25;34.59;100438.78;4995605;28;20395;-80
2022/08/01 09:24:28;;;;;;;;;;;;;;;25.29;34.59;100439.84;4995352;28;19949;-80
2022/08/01 09:26:54;;;;;;;;;;;;;;;25.30;34.62;100432.44;4995290;28;19922;-81
2022/08/01 09:29:27;;;;;;;;;;;;;;;25.34;34.11;100438.19;4995531;28;19930;-81
2022/08/01 09:31:52;;;;;;;;;;;;;;;25.35;34.42;100434.34;4995251;28;19973;-81
2022/08/01 09:34:25;;;;;;;;;;;;;;;25.29;34.06;100431.63;4995914;28;19918;-78
2022/08/01 09:36:51;;;;;;;;;;;;;;;25.22;34.19;100431.13;4996180;28;19918;-81
2022/08/01 09:39:16;;;;;;;;;;;;;;;25.27;34.05;100422.09;4997250;28;20288;-83
2022/08/01 09:41:42;;;;;;;;;;;;;;;25.32;33.95;100426.69;5015024;28;19917;-84
2022/08/01 09:44:07;;;;;;;;;;;;;;;25.30;33.85;100422.34;5015215;28;20276;-82
2022/08/01 09:46:32;;;;;;;;;;;;;;;25.32;33.74;100419.31;5015148;28;19928;-84
2022/08/01 09:48:58;;;;;;;;;;;;;;;25.29;33.96;100417.16;5015620;28;19924;-82
2022/08/01 09:51:27;;;;;;;;;;;;;;;25.33;33.90;100418.22;5015318;28;20392;-79
2022/08/01 09:53:52;;;;;;;;;;;;;;;25.29;33.62;100417.16;5014966;28;19918;-81
2022/08/01 09:56:18;;;;;;;;;;;;;;;25.40;33.92;100423.34;5014900;28;19924;-80
2022/08/01 09:58:49;;;;;;;;;;;;;;;25.34;33.99;100419.03;5015154;28;19921;-81
2022/08/01 10:01:14;;;;;;;;;;;;;;;25.35;33.40;100417.94;5014684;28;19918;-78
2022/08/01 10:03:40;;;;;;;;;;;;;;;25.26;33.58;100396.66;5015191;28;20318;-79
2022/08/01 10:06:20;;;;;;;;;;;;;;;25.29;33.56;100404.28;5014817;28;19918;-79
2022/08/01 10:08:46;;;;;;;;;;;;;;;25.28;33.42;100408.16;5015582;28;19917;-78
2022/08/01 10:11:11;;;;;;;;;;;;;;;25.41;33.85;100392.19;5014626;28;19965;-77
2022/08/01 10:13:37;;;;;;;;;;;;;;;25.36;33.52;100392.22;5014462;28;20348;-78
2022/08/01 10:16:02;;;;;;;;;;;;;;;25.41;33.80;100394.91;5015151;28;19933;-81
2022/08/01 10:18:31;;;;;;;;;;;;;;;25.51;33.80;100393.97;5013309;28;20268;-80
2022/08/01 10:20:57;;;;;;;;;;;;;;;25.49;33.93;100392.38;5013156;28;20360;-81
2022/08/01 10:23:22;;;;;;;;;;;;;;;25.59;33.60;100379.69;5016580;28;19932;-79
2022/08/01 10:25:47;;;;;;;;;;;;;;;25.56;34.00;100389.31;5017708;28;20414;-79
2022/08/01 10:28:14;;;;;;;;;;;;;;;25.62;33.64;100385.41;5016691;28;19937;-79
2022/08/01 10:30:41;;;;;;;;;;;;;;;25.60;33.91;100381.34;5018254;28;20060;-79
2022/08/01 10:33:06;;;;;;;;;;;;;;;25.58;33.51;100372.59;5017917;28;19925;-78
2022/08/01 10:35:32;;;;;;;;;;;;;;;25.62;33.82;100373.66;5016498;28;19918;-79
2022/08/01 10:37:58;;;;;;;;;;;;;;;25.55;33.81;100363.03;5017702;28;19918;-80
2022/08/01 10:40:23;;;;;;;;;;;;;;;25.58;33.77;100362.47;5017990;28;19928;-82
2022/08/01 10:42:48;;;;;;;;;;;;;;;25.52;33.74;100362.78;5018068;28;20349;-80
2022/08/01 10:45:14;;;;;;;;;;;;;;;25.52;33.88;100360.06;5016837;28;19918;-81
2022/08/01 10:47:49;;;;;;;;;;;;;;;25.65;33.75;100351.97;5016463;28;20386;-83
2022/08/01 10:50:19;;;;;;;;;;;;;;;25.68;33.73;100350.56;5018087;28;19983;-80
2022/08/01 10:53:11;;;;;;;;;;;;;;;25.70;33.66;100348.38;5017987;28;19989;-81
2022/08/01 10:55:47;;;;;;;;;;;;;;;25.75;34.02;100344.75;5017625;28;19918;-86
2022/08/01 10:58:12;;;;;;;;;;;;;;;25.68;34.02;100350.56;5018151;28;19925;-82
2022/08/01 11:00:37;;;;;;;;;;;;;;;25.74;33.77;100348.63;5017960;28;20319;-82
2022/08/01 11:03:03;;;;;;;;;;;;;;;25.80;33.64;100348.28;5017428;28;19921;-81
2022/08/01 11:05:32;;;;;;;;;;;;;;;25.80;33.44;100350.19;5018074;28;19918;-85
2022/08/01 11:07:58;;;;;;;;;;;;;;;25.78;33.36;100342.25;5017920;28;20391;-85
2022/08/01 11:10:44;;;;;;;;;;;;;;;25.75;33.63;100344.75;5017599;28;19928;-84
2022/08/01 11:13:11;;;;;;;;;;;;;;;25.55;33.88;100341.16;5018424;28;19923;-81
2022/08/01 11:15:36;;;;;;;;;;;;;;;25.57;34.24;100343.59;5018923;28;19953;-79
2022/08/01 11:18:02;;;;;;;;;;;;;;;25.72;34.16;100340.69;5019290;28;19929;-81
2022/08/01 11:20:34;;;;;;;;;;;;;;;25.67;34.01;100344.28;5018276;28;19917;-82
2022/08/01 11:25:47;;;;;;;;;;;;;;;25.66;33.82;100339.94;5018724;28;19917;-82
2022/08/01 11:28:23;;;;;;;;;;;;;;;25.75;33.90;100336.56;5017636;28;19979;-84
2022/08/01 11:31:11;;;;;;;;;;;;;;;25.74;33.93;100340.41;5017752;28;19929;-82
2022/08/01 11:33:44;;;;;;;;;;;;;;;25.76;33.96;100340.94;5016721;28;19924;-79
2022/08/01 11:36:12;;;;;;;;;;;;;;;25.70;34.14;100336.59;5017802;28;19921;-79
2022/08/01 11:38:38;;;;;;;;;;;;;;;25.66;34.40;100334.47;5016943;28;19917;-80
2022/08/01 11:41:10;;;;;;;;;;;;;;;25.67;34.52;100344.28;5003678;28;20025;-78
2022/08/01 11:43:36;;;;;;;;;;;;;;;25.63;34.62;100332.31;4997730;28;19924;-77
2022/08/01 11:46:01;;;;;;;;;;;;;;;25.72;34.21;100345.38;4996198;28;20284;-80
2022/08/01 11:48:28;;;;;;;;;;;;;;;25.65;34.13;100346.50;4998174;28;19918;-78
2022/08/01 11:50:56;;;;;;;;;;;;;;;25.73;34.33;100341.50;4997377;28;19922;-79
2022/08/01 11:53:21;;;;;;;;;;;;;;;25.86;34.26;100341.63;4997076;28;19918;-78
2022/08/01 11:55:50;;;;;;;;;;;;;;;25.80;34.74;100341.97;4996105;28;19925;-78
2022/08/01 11:58:16;;;;;;;;;;;;;;;25.90;34.95;100341.03;4997196;28;19925;-80
2022/08/01 12:00:42;;;;;;;;;;;;;;;25.85;35.17;100333.69;4997418;28;19918;-79
2022/08/01 12:03:07;;;;;;;;;;;;;;;25.91;35.12;100332.53;4996336;28;19972;-82
2022/08/01 12:05:33;;;;;;;;;;;;;;;25.79;35.93;100332.16;4997106;28;20048;-80
2022/08/01 12:07:59;;;;;;;;;;;;;;;25.76;36.29;100319.84;4997325;28;19964;-80
2022/08/01 12:10:25;;;;;;;;;;;;;;;25.83;36.25;100324.97;4997003;28;19925;-79
2022/08/01 12:12:54;;;;;;;;;;;;;;;25.83;36.73;100319.50;4995562;28;19968;-80
2022/08/01 12:15:20;;;;;;;;;;;;;;;25.94;36.09;100315.56;4995891;28;20013;-80
2022/08/01 12:17:49;;;;;;;;;;;;;;;25.98;35.96;100311.13;4997379;28;19953;-80
2022/08/01 12:20:15;;;;;;;;;;;;;;;25.99;35.99;100301.81;4996817;28;20376;-79
2022/08/01 12:22:41;;;;;;;;;;;;;;;25.78;36.63;100305.88;4996853;28;19918;-78
2022/08/01 12:25:07;;;;;;;;;;;;;;;25.91;36.36;100302.44;4996296;28;19941;-78
2022/08/01 12:27:32;;;;;;;;;;;;;;;25.80;36.89;100309.13;4995961;28;19921;-77
2022/08/01 12:29:57;;;;;;;;;;;;;;;25.90;36.92;100308.19;4996528;28;19929;-78
2022/08/01 12:32:30;;;;;;;;;;;;;;;25.98;36.80;100302.13;4995916;28;20442;-78
2022/08/01 12:34:56;;;;;;;;;;;;;;;25.88;37.26;100300.28;4996483;28;19957;-79
2022/08/01 12:37:23;;;;;;;;;;;;;;;25.78;37.46;100295.72;4996420;28;19917;-78
2022/08/01 12:39:48;;;;;;;;;;;;;;;25.82;37.55;100301.47;4997741;28;20023;-79